Time;durP1;ratioP1;P1;durP2;ratioP2;P2;SDS_P1;SDS_P2;PMS_P1;PMS_P2;Temp;Humidity;BMP_temperature;BMP_pressure;BME280_temperature;BME280_humidity;BME280_pressure;Samples;Min_cycle;Max_cycle;Signal;HPM_P1;HPM_P2
2023/01/19 00:02:56;;;;;;;15.10;10.20;;;;;;;2.67;100.00;98836.78;181006;1270;43492;-63
2023/01/19 00:07:01;;;;;;;16.10;9.30;;;;;;;2.65;100.00;98842.65;180976;1270;43891;-63
2023/01/19 00:11:05;;;;;;;11.90;7.30;;;;;;;2.63;100.00;98851.23;181009;1267;43804;-60
2023/01/19 00:15:08;;;;;;;13.00;7.40;;;;;;;2.71;100.00;98855.77;180953;1267;57990;-61
2023/01/19 00:19:11;;;;;;;11.10;8.40;;;;;;;2.79;100.00;98854.63;180941;1267;43645;-61
2023/01/19 00:23:15;;;;;;;9.10;6.60;;;;;;;2.70;100.00;98860.30;180961;1267;43047;-63
2023/01/19 00:27:21;;;;;;;8.30;7.00;;;;;;;2.62;100.00;98877.04;180903;1268;43725;-63
2023/01/19 00:31:24;;;;;;;13.30;7.60;;;;;;;2.69;100.00;98885.98;180958;1267;43888;-61
2023/01/19 00:35:31;;;;;;;9.80;7.80;;;;;;;2.64;99.98;98894.77;180896;1270;57775;-62
2023/01/19 00:39:33;;;;;;;12.10;8.30;;;;;;;2.55;100.00;98900.79;180916;1267;43438;-62
2023/01/19 00:43:36;;;;;;;13.20;7.70;;;;;;;2.55;100.00;98912.48;180971;1267;43117;-62
2023/01/19 00:47:39;;;;;;;7.90;6.10;;;;;;;2.61;100.00;98908.06;181012;1266;43229;-61
2023/01/19 00:51:42;;;;;;;9.50;7.60;;;;;;;2.60;99.97;98907.11;180918;1270;43439;-64
2023/01/19 00:55:45;;;;;;;11.30;8.20;;;;;;;2.50;99.14;98910.63;180848;1267;163800;-62
2023/01/19 00:59:48;;;;;;;9.70;7.70;;;;;;;2.51;100.00;98912.81;180989;1267;43200;-61
2023/01/19 01:03:52;;;;;;;10.20;8.70;;;;;;;2.55;100.00;98925.46;181003;1267;43081;-63
2023/01/19 01:07:59;;;;;;;7.80;7.10;;;;;;;2.60;99.98;98933.02;180961;1267;43760;-63
2023/01/19 01:12:05;;;;;;;11.20;7.80;;;;;;;2.65;99.49;98940.67;180864;1269;43059;-64
2023/01/19 01:16:15;;;;;;;7.40;6.10;;;;;;;2.68;98.92;98951.20;180867;1267;59279;-62
2023/01/19 01:20:21;;;;;;;7.20;6.10;;;;;;;2.70;98.22;98956.66;180812;1268;43677;-63
2023/01/19 01:24:24;;;;;;;9.40;6.40;;;;;;;2.66;98.46;98958.34;180940;1267;43816;-62
2023/01/19 01:28:27;;;;;;;8.10;6.40;;;;;;;2.73;99.49;98959.23;180906;1268;43215;-62
2023/01/19 01:32:30;;;;;;;8.20;6.40;;;;;;;2.72;99.40;98969.63;180881;1267;44174;-64
2023/01/19 01:36:34;;;;;;;9.10;7.30;;;;;;;2.63;99.85;98982.16;180985;1267;58341;-63
2023/01/19 01:40:40;;;;;;;8.60;6.80;;;;;;;2.48;99.81;98978.84;180954;1267;43389;-62
2023/01/19 01:44:51;;;;;;;7.10;6.00;;;;;;;2.31;100.00;98989.20;180946;1267;43704;-63
2023/01/19 01:49:11;;;;;;;8.10;5.10;;;;;;;2.30;100.00;98987.39;180883;1267;43154;-62
2023/01/19 01:53:14;;;;;;;15.40;7.10;;;;;;;2.30;100.00;98986.34;180925;1266;43852;-63
2023/01/19 01:57:21;;;;;;;7.90;6.00;;;;;;;2.24;100.00;98991.84;180953;1267;58067;-64
2023/01/19 02:05:56;;;;;;;9.90;7.00;;;;;;;2.45;100.00;98994.06;180985;1267;44021;-63
2023/01/19 02:14:20;;;;;;;10.10;8.80;;;;;;;2.67;100.00;99001.67;180991;1267;43650;-63
2023/01/19 02:18:27;;;;;;;12.70;8.90;;;;;;;2.76;100.00;99001.75;180957;1267;57778;-62
2023/01/19 02:22:37;;;;;;;9.40;6.60;;;;;;;2.80;100.00;99006.02;181003;1267;43144;-62
2023/01/19 02:26:47;;;;;;;10.90;8.70;;;;;;;2.73;100.00;99009.98;180994;1266;43210;-63
2023/01/19 02:30:57;;;;;;;;;;;;;;;2.72;100.00;99014.98;180931;1267;43497;-64
2023/01/19 02:35:00;;;;;;;12.80;8.00;;;;;;;2.69;100.00;99012.03;180998;1266;42922;-63
2023/01/19 02:39:04;;;;;;;16.30;10.50;;;;;;;2.65;100.00;99022.77;180909;1268;57936;-62
2023/01/19 02:43:08;;;;;;;13.90;10.40;;;;;;;2.70;100.00;99028.92;180973;1267;43082;-63
2023/01/19 02:47:11;;;;;;;12.40;8.90;;;;;;;2.61;100.00;99036.59;180963;1266;43133;-62
2023/01/19 02:51:19;;;;;;;10.80;9.40;;;;;;;2.46;100.00;99042.48;180985;1266;43054;-64
2023/01/19 02:55:27;;;;;;;14.30;10.00;;;;;;;2.42;100.00;99044.64;180925;1267;47435;-61
2023/01/19 03:04:39;;;;;;;13.70;10.30;;;;;;;2.35;100.00;99054.90;180936;1268;43019;-63
2023/01/19 03:09:03;;;;;;;16.50;10.90;;;;;;;2.36;100.00;99051.55;180982;1267;43003;-63
2023/01/19 03:13:05;;;;;;;13.70;10.10;;;;;;;2.39;100.00;99043.31;181014;1266;43325;-63
2023/01/19 03:17:10;;;;;;;16.30;12.10;;;;;;;2.33;100.00;99048.25;180971;1267;42987;-65
2023/01/19 03:21:18;;;;;;;22.10;16.10;;;;;;;2.30;100.00;99047.61;180992;1267;58056;-61
2023/01/19 03:25:30;;;;;;;14.40;10.80;;;;;;;2.30;100.00;99046.70;180955;1267;43671;-63
2023/01/19 03:29:35;;;;;;;21.30;14.70;;;;;;;2.34;100.00;99039.08;180921;1266;43071;-62
2023/01/19 03:33:43;;;;;;;15.30;12.10;;;;;;;2.34;100.00;99042.05;180920;1266;43846;-62
2023/01/19 03:37:49;;;;;;;10.20;7.30;;;;;;;2.32;100.00;99049.72;180961;1267;43796;-63
2023/01/19 03:41:57;;;;;;;15.30;9.80;;;;;;;2.30;100.00;99050.54;180969;1266;58049;-63
2023/01/19 03:46:04;;;;;;;9.60;7.70;;;;;;;2.30;100.00;99055.10;180979;1267;43118;-65
2023/01/19 03:50:13;;;;;;;16.90;10.40;;;;;;;2.32;100.00;99057.42;180991;1267;43633;-62
2023/01/19 03:54:16;;;;;;;12.60;11.20;;;;;;;2.36;100.00;99071.67;180972;1266;43727;-63
2023/01/19 03:58:19;;;;;;;19.10;13.20;;;;;;;2.38;100.00;99077.83;180964;1267;43502;-60
2023/01/19 04:02:23;;;;;;;13.50;7.80;;;;;;;2.37;100.00;99081.39;180989;1267;58005;-64
2023/01/19 04:06:27;;;;;;;11.60;9.10;;;;;;;2.33;100.00;99080.61;180983;1266;43797;-64
2023/01/19 04:10:30;;;;;;;11.50;9.50;;;;;;;2.28;100.00;99081.98;181044;1265;43026;-61
2023/01/19 04:14:33;;;;;;;11.50;9.10;;;;;;;2.24;100.00;99079.41;181019;1267;49625;-62
2023/01/19 04:18:36;;;;;;;10.90;8.00;;;;;;;2.26;100.00;99080.73;181013;1267;43326;-64
2023/01/19 04:22:39;;;;;;;8.50;6.80;;;;;;;2.20;100.00;99087.09;180973;1267;58030;-60
2023/01/19 04:26:42;;;;;;;11.50;6.50;;;;;;;2.13;100.00;99094.52;180911;1266;43435;-65
2023/01/19 04:30:49;;;;;;;9.90;7.10;;;;;;;2.06;100.00;99092.17;180992;1267;43790;-61
2023/01/19 04:34:54;;;;;;;9.00;7.00;;;;;;;2.02;100.00;99091.38;180917;1267;43716;-62
2023/01/19 04:38:58;;;;;;;15.40;8.20;;;;;;;1.94;100.00;99081.73;180984;1265;43411;-66
2023/01/19 04:43:01;;;;;;;13.90;8.80;;;;;;;1.81;100.00;99081.34;181059;1267;58254;-63
2023/01/19 04:47:05;;;;;;;13.50;6.60;;;;;;;1.74;100.00;99069.56;180973;1267;43721;-63
2023/01/19 04:51:08;;;;;;;16.70;11.80;;;;;;;1.68;100.00;99070.84;180899;1269;43792;-62
2023/01/19 04:55:13;;;;;;;16.20;10.30;;;;;;;1.65;100.00;99090.24;181003;1267;43678;-63
2023/01/19 04:59:16;;;;;;;17.50;12.40;;;;;;;1.64;100.00;99094.86;181022;1266;43408;-64
2023/01/19 05:03:20;;;;;;;17.20;13.20;;;;;;;1.65;100.00;99104.23;181074;1266;58432;-61
2023/01/19 05:07:23;;;;;;;13.10;11.20;;;;;;;1.68;100.00;99115.96;181065;1266;43705;-61
2023/01/19 05:11:26;;;;;;;15.80;10.20;;;;;;;1.73;100.00;99121.73;181054;1266;43746;-61
2023/01/19 05:15:29;;;;;;;14.80;11.40;;;;;;;1.81;100.00;99140.13;181016;1267;43034;-62
2023/01/19 05:19:49;;;;;;;16.00;9.30;;;;;;;1.89;100.00;99153.95;181035;1265;43077;-64
2023/01/19 05:23:52;;;;;;;18.00;11.20;;;;;;;1.93;100.00;99158.26;181051;1266;58175;-64
2023/01/19 05:28:07;;;;;;;18.20;11.00;;;;;;;1.99;100.00;99169.41;181059;1265;43001;-61
2023/01/19 05:32:10;;;;;;;14.80;10.60;;;;;;;2.02;100.00;99177.96;181064;1265;43046;-61
2023/01/19 05:36:13;;;;;;;15.80;9.70;;;;;;;2.07;100.00;99179.73;181055;1266;43074;-61
2023/01/19 05:40:16;;;;;;;13.60;9.00;;;;;;;2.11;100.00;99179.27;181043;1266;43166;-62
2023/01/19 05:44:36;;;;;;;14.50;10.90;;;;;;;2.04;100.00;99180.76;181024;1266;58345;-64
2023/01/19 05:48:39;;;;;;;13.10;8.50;;;;;;;2.02;97.95;99183.73;181004;1267;43129;-61
2023/01/19 05:52:42;;;;;;;14.60;9.30;;;;;;;1.92;96.59;99184.90;181048;1265;43727;-65
2023/01/19 05:56:44;;;;;;;11.40;7.30;;;;;;;1.89;95.85;99194.69;181027;1266;43803;-64
2023/01/19 06:00:48;;;;;;;13.30;9.40;;;;;;;1.76;95.54;99198.27;181028;1266;43552;-62
2023/01/19 06:04:50;;;;;;;15.30;11.80;;;;;;;1.75;95.91;99209.88;181038;1266;58071;-62
2023/01/19 06:08:53;;;;;;;16.50;11.30;;;;;;;1.73;96.83;99219.98;181046;1266;43043;-61
2023/01/19 06:12:56;;;;;;;17.00;11.50;;;;;;;1.74;96.97;99233.55;181056;1267;43843;-64
2023/01/19 06:16:59;;;;;;;14.40;10.10;;;;;;;1.72;96.27;99242.71;181059;1265;43711;-62
2023/01/19 06:21:05;;;;;;;16.70;12.90;;;;;;;1.73;96.62;99248.80;181076;1266;43816;-61
2023/01/19 06:25:08;;;;;;;17.30;12.40;;;;;;;1.69;95.74;99248.02;181017;1266;58409;-62
2023/01/19 06:29:13;;;;;;;26.60;12.90;;;;;;;1.59;94.91;99247.40;181039;1267;43035;-61
2023/01/19 06:33:17;;;;;;;15.90;10.80;;;;;;;1.56;94.50;99250.38;181044;1266;43537;-63
2023/01/19 06:37:20;;;;;;;23.00;10.80;;;;;;;1.48;93.68;99250.29;181047;1265;43646;-60
2023/01/19 06:41:37;;;;;;;17.50;8.80;;;;;;;1.43;94.24;99251.33;181038;1265;43731;-60
2023/01/19 06:45:40;;;;;;;20.80;9.20;;;;;;;1.39;93.48;99247.21;181030;1267;59376;-61
2023/01/19 06:49:50;;;;;;;22.50;13.20;;;;;;;1.35;93.62;99247.96;181084;1266;43691;-60
2023/01/19 06:53:53;;;;;;;15.20;10.60;;;;;;;1.39;95.48;99257.55;180995;1267;43743;-61
2023/01/19 06:57:57;;;;;;;17.80;11.40;;;;;;;1.40;96.26;99260.75;181000;1266;43202;-62
2023/01/19 07:02:03;;;;;;;18.10;12.40;;;;;;;1.44;96.92;99261.19;181016;1267;44023;-62
2023/01/19 07:06:26;;;;;;;15.60;10.90;;;;;;;1.44;97.42;99266.29;181002;1267;58393;-60
2023/01/19 07:10:30;;;;;;;17.30;11.20;;;;;;;1.43;97.53;99270.87;181048;1267;43347;-62
2023/01/19 07:14:56;;;;;;;13.30;10.70;;;;;;;1.43;98.00;99275.45;181028;1266;43605;-65
2023/01/19 07:18:59;;;;;;;17.30;12.30;;;;;;;1.42;97.98;99276.36;181057;1266;43070;-62
2023/01/19 07:23:03;;;;;;;21.40;10.20;;;;;;;1.38;97.86;99276.45;181070;1265;43069;-65
2023/01/19 07:27:05;;;;;;;13.80;10.10;;;;;;;1.33;97.81;99273.41;181053;1265;58244;-62
2023/01/19 07:31:09;;;;;;;17.70;11.20;;;;;;;1.34;97.61;99269.54;181051;1267;43103;-62
2023/01/19 07:35:12;;;;;;;17.20;12.00;;;;;;;1.32;97.15;99265.06;181033;1266;43611;-65
2023/01/19 07:39:15;;;;;;;20.50;10.80;;;;;;;1.24;96.41;99264.85;181045;1266;43394;-61
2023/01/19 07:43:18;;;;;;;11.60;8.40;;;;;;;1.13;96.37;99257.98;181085;1266;43053;-61
2023/01/19 07:47:25;;;;;;;15.70;10.90;;;;;;;1.02;97.61;99257.55;181047;1266;59169;-60
2023/01/19 07:51:28;;;;;;;21.60;13.50;;;;;;;0.95;98.89;99253.98;181070;1265;43104;-62
2023/01/19 07:55:31;;;;;;;20.10;11.80;;;;;;;0.84;98.55;99253.89;181096;1266;43853;-62
2023/01/19 07:59:34;;;;;;;21.30;12.50;;;;;;;0.79;98.07;99251.92;181013;1266;43920;-61
2023/01/19 08:03:37;;;;;;;19.00;13.80;;;;;;;0.78;98.17;99253.23;181111;1265;43080;-62
2023/01/19 08:08:08;;;;;;;17.30;10.70;;;;;;;0.74;98.17;99256.41;181022;1265;58042;-61
2023/01/19 08:12:10;;;;;;;19.30;10.10;;;;;;;0.71;98.04;99260.56;181015;1266;43086;-60
2023/01/19 08:16:13;;;;;;;16.10;11.60;;;;;;;0.73;98.20;99263.58;180995;1265;43118;-60
2023/01/19 08:20:16;;;;;;;14.90;10.80;;;;;;;0.80;97.77;99264.06;181075;1266;43047;-62
2023/01/19 08:24:21;;;;;;;15.70;8.30;;;;;;;0.86;97.35;99266.00;181086;1266;43550;-64
2023/01/19 08:28:24;;;;;;;19.60;12.20;;;;;;;0.92;96.77;99275.23;181043;1266;58047;-60
2023/01/19 08:32:32;;;;;;;16.60;11.40;;;;;;;1.07;95.90;99276.85;181041;1267;43634;-62
2023/01/19 08:36:35;;;;;;;21.70;10.90;;;;;;;1.16;94.54;99284.55;181015;1267;42952;-66
2023/01/19 08:41:00;;;;;;;14.90;10.20;;;;;;;1.29;94.01;99288.13;181174;1264;43770;-61
2023/01/19 08:45:08;;;;;;;19.90;13.20;;;;;;;1.47;93.67;99288.84;180660;1267;44173;-91
2023/01/19 08:49:13;;;;;;;22.20;11.80;;;;;;;1.64;91.55;99293.38;180780;1269;57976;-90
2023/01/19 08:53:19;;;;;;;20.60;13.50;;;;;;;1.79;90.68;99296.00;180735;1266;43923;-91
2023/01/19 08:57:24;;;;;;;19.80;12.50;;;;;;;1.91;89.21;99297.55;180788;1267;44223;-91
2023/01/19 09:05:54;;;;;;;18.70;12.10;;;;;;;2.20;88.66;99295.90;174437;1264;44250;-82
2023/01/19 09:09:58;;;;;;;17.00;11.40;;;;;;;2.33;88.22;99303.16;180373;1264;57913;-82
2023/01/19 09:14:02;;;;;;;13.40;8.70;;;;;;;2.39;86.97;99310.30;180515;1264;43981;-82
2023/01/19 09:18:12;;;;;;;12.30;8.50;;;;;;;2.47;85.96;99321.92;180553;1264;44088;-82
2023/01/19 09:22:18;;;;;;;12.10;9.00;;;;;;;2.54;84.91;99333.84;180453;1264;43925;-82
2023/01/19 09:26:22;;;;;;;17.80;11.10;;;;;;;2.58;83.20;99343.61;180545;1264;43978;-82
2023/01/19 09:30:26;;;;;;;20.20;10.30;;;;;;;2.60;82.69;99344.50;180667;1264;58333;-83
2023/01/19 09:34:30;;;;;;;17.40;10.20;;;;;;;2.58;82.09;99345.36;180736;1264;43771;-82
2023/01/19 09:38:33;;;;;;;16.00;11.30;;;;;;;2.62;81.67;99347.71;180543;1264;43931;-82
2023/01/19 09:42:42;;;;;;;23.40;11.80;;;;;;;2.74;81.29;99339.94;180575;1264;45879;-83
2023/01/19 09:46:45;;;;;;;20.00;11.40;;;;;;;2.87;80.14;99340.67;180369;1264;43829;-82
2023/01/19 09:50:49;;;;;;;24.40;13.60;;;;;;;2.99;80.12;99349.52;180609;1264;59228;-83
2023/01/19 09:54:55;;;;;;;29.30;17.10;;;;;;;3.05;78.54;99349.73;180660;1264;44039;-83
2023/01/19 09:58:59;;;;;;;45.70;21.50;;;;;;;3.08;78.52;99345.51;180476;1264;44133;-82
2023/01/19 10:03:15;;;;;;;22.90;13.50;;;;;;;3.08;76.51;99337.92;180410;1264;43918;-82
2023/01/19 10:07:25;;;;;;;23.60;11.90;;;;;;;3.09;75.60;99337.16;180565;1264;44129;-83
2023/01/19 10:11:47;;;;;;;18.20;8.90;;;;;;;3.10;75.73;99321.15;180632;1264;59268;-83
2023/01/19 10:16:19;;;;;;;19.30;11.10;;;;;;;3.06;74.59;99317.77;180779;1264;43777;-82
2023/01/19 10:20:29;;;;;;;10.00;8.20;;;;;;;3.12;72.35;99319.12;180656;1264;44250;-82
2023/01/19 10:24:40;;;;;;;9.00;7.70;;;;;;;3.16;72.74;99316.25;180707;1264;43968;-82
2023/01/19 10:28:45;;;;;;;19.70;11.10;;;;;;;3.11;72.64;99305.33;180609;1264;44162;-82
2023/01/19 10:32:49;;;;;;;14.50;8.20;;;;;;;3.13;72.32;99312.02;180400;1264;58797;-82
2023/01/19 10:37:01;;;;;;;12.80;8.10;;;;;;;3.22;73.60;99314.45;180563;1264;44283;-82
2023/01/19 10:41:12;;;;;;;10.80;6.60;;;;;;;3.26;71.86;99307.83;180497;1268;43880;-81
2023/01/19 10:45:22;;;;;;;8.20;5.60;;;;;;;3.25;71.62;99311.39;180584;1264;44199;-81
2023/01/19 10:49:36;;;;;;;9.90;6.20;;;;;;;3.31;71.99;99318.39;180560;1264;44079;-82
2023/01/19 10:53:42;;;;;;;12.30;7.40;;;;;;;3.37;71.09;99310.42;180421;1264;58120;-82
2023/01/19 10:57:48;;;;;;;12.40;6.50;;;;;;;3.49;71.23;99304.35;180559;1264;43877;-82
2023/01/19 11:02:16;;;;;;;10.80;7.40;;;;;;;3.46;70.20;99307.38;180460;1264;44276;-82
2023/01/19 11:06:23;;;;;;;36.80;19.60;;;;;;;3.40;70.87;99313.40;180380;1264;44015;-82
2023/01/19 11:10:28;;;;;;;11.60;7.20;;;;;;;3.43;70.99;99312.14;180681;1264;44001;-82
2023/01/19 11:14:31;;;;;;;9.00;5.50;;;;;;;3.44;70.33;99312.25;180572;1264;58200;-81
2023/01/19 11:18:37;;;;;;;55.20;24.30;;;;;;;3.40;70.01;99315.18;180668;1264;43706;-82
2023/01/19 11:22:40;;;;;;;54.50;28.40;;;;;;;3.40;68.74;99317.10;180615;1264;43841;-82
2023/01/19 11:26:46;;;;;;;25.30;8.90;;;;;;;3.47;70.97;99319.56;180346;1265;44092;-82
2023/01/19 11:30:55;;;;;;;76.80;36.40;;;;;;;3.49;69.81;99318.89;180571;1264;43965;-82
2023/01/19 11:35:21;;;;;;;23.70;10.50;;;;;;;3.46;68.09;99316.35;180385;1264;60042;-82
2023/01/19 11:39:27;;;;;;;11.60;7.80;;;;;;;3.44;68.31;99312.27;180502;1265;43942;-82
2023/01/19 11:43:30;;;;;;;13.70;8.30;;;;;;;3.44;68.42;99312.26;180565;1264;43872;-82
2023/01/19 11:47:51;;;;;;;18.70;13.20;;;;;;;3.48;69.04;99310.45;180568;1264;44097;-82
2023/01/19 11:52:05;;;;;;;8.30;6.70;;;;;;;3.53;69.04;99297.83;180521;1265;43854;-82
2023/01/19 11:56:13;;;;;;;8.00;5.90;;;;;;;3.55;69.42;99297.30;180364;1264;57953;-82
2023/01/19 12:00:53;;;;;;;11.50;7.70;;;;;;;3.61;69.15;99299.39;180484;1265;43860;-82
2023/01/19 12:05:05;;;;;;;7.90;5.90;;;;;;;3.62;68.65;99293.55;180494;1264;44036;-82
2023/01/19 12:09:18;;;;;;;120.00;52.30;;;;;;;3.59;67.38;99290.06;180571;1264;44053;-82
2023/01/19 12:13:23;;;;;;;146.30;74.50;;;;;;;3.60;67.87;99286.98;180646;1264;43921;-82
2023/01/19 12:17:36;;;;;;;37.80;20.40;;;;;;;3.67;68.89;99287.90;180525;1265;60086;-82
2023/01/19 12:21:40;;;;;;;10.20;6.80;;;;;;;3.54;66.96;99288.83;180635;1265;44119;-83
2023/01/19 12:26:00;;;;;;;10.00;6.10;;;;;;;3.52;68.72;99289.27;180641;1265;43890;-82
2023/01/19 12:30:16;;;;;;;12.50;7.50;;;;;;;3.61;70.00;99291.32;180500;1264;44090;-82
2023/01/19 12:34:26;;;;;;;11.70;6.90;;;;;;;3.59;70.25;99286.17;180426;1264;43899;-82
2023/01/19 12:38:36;;;;;;;14.30;8.30;;;;;;;3.59;70.51;99287.62;180425;1265;59343;-82
2023/01/19 12:42:50;;;;;;;13.20;8.40;;;;;;;3.57;69.99;99278.95;180586;1265;44217;-82
2023/01/19 12:46:54;;;;;;;15.40;8.80;;;;;;;3.68;69.53;99275.24;180439;1264;43913;-82
2023/01/19 12:50:58;;;;;;;11.80;8.00;;;;;;;3.73;69.48;99276.82;180613;1265;43743;-82
2023/01/19 12:55:13;;;;;;;10.90;7.30;;;;;;;3.71;69.60;99275.73;180394;1264;43882;-82
2023/01/19 12:59:25;;;;;;;10.10;6.10;;;;;;;3.68;70.15;99278.52;180151;1264;457565;-82
2023/01/19 13:03:28;;;;;;;10.20;8.40;;;;;;;3.72;72.37;99278.09;180440;1264;43867;-82
2023/01/19 13:08:05;;;;;;;16.60;7.20;;;;;;;3.75;71.39;99284.73;180682;1264;44140;-82
2023/01/19 13:12:24;;;;;;;9.60;5.80;;;;;;;3.74;70.85;99282.02;180564;1265;43712;-82
2023/01/19 13:16:27;;;;;;;23.40;11.20;;;;;;;3.67;69.02;99275.30;180554;1264;44224;-82
2023/01/19 13:20:45;;;;;;;195.40;78.60;;;;;;;3.62;68.41;99281.95;180672;1264;58248;-83
2023/01/19 13:25:11;;;;;;;86.10;42.10;;;;;;;3.57;68.11;99280.73;180565;1264;43861;-82
2023/01/19 13:29:39;;;;;;;23.90;14.50;;;;;;;3.43;68.58;99277.48;180423;1265;44112;-82
2023/01/19 13:33:52;;;;;;;11.40;7.90;;;;;;;3.39;70.24;99278.42;180428;1264;44371;-82
2023/01/19 13:38:01;;;;;;;10.30;5.50;;;;;;;3.35;70.02;99281.84;180695;1264;43769;-82
2023/01/19 13:42:13;;;;;;;12.20;6.30;;;;;;;3.29;70.60;99280.50;180540;1264;58630;-83
2023/01/19 13:46:18;;;;;;;11.60;7.50;;;;;;;3.26;71.64;99280.30;180566;1264;44176;-82
2023/01/19 13:50:24;;;;;;;9.30;7.60;;;;;;;3.25;71.56;99285.11;180388;1265;44147;-83
2023/01/19 13:54:27;;;;;;;9.70;6.10;;;;;;;3.23;71.48;99283.86;180552;1264;43910;-82
2023/01/19 13:58:30;;;;;;;8.90;6.90;;;;;;;3.18;71.80;99283.54;180601;1264;44126;-83
2023/01/19 14:02:33;;;;;;;130.10;51.40;;;;;;;3.20;72.25;99286.16;180541;1264;58421;-82
2023/01/19 14:06:43;;;;;;;66.70;35.10;;;;;;;3.20;71.89;99293.90;180578;1264;43725;-83
2023/01/19 14:11:00;;;;;;;24.40;14.40;;;;;;;3.15;71.69;99297.88;180557;1264;44101;-83
2023/01/19 14:15:11;;;;;;;10.30;7.80;;;;;;;3.15;72.11;99298.95;180572;1265;43759;-82
2023/01/19 14:19:14;;;;;;;14.70;8.40;;;;;;;3.19;73.07;99295.04;180421;1264;44246;-82
2023/01/19 14:23:40;;;;;;;10.80;6.80;;;;;;;3.23;73.78;99297.36;180380;1266;61680;-83
2023/01/19 14:27:43;;;;;;;11.00;7.20;;;;;;;3.28;73.77;99304.41;180528;1264;43984;-83
2023/01/19 14:32:10;;;;;;;14.00;7.10;;;;;;;3.36;73.97;99306.35;180488;1264;44314;-82
2023/01/19 14:36:13;;;;;;;13.00;8.20;;;;;;;3.45;73.31;99304.86;180528;1263;43901;-83
2023/01/19 14:40:21;;;;;;;12.00;7.80;;;;;;;3.53;72.68;99298.69;180588;1264;44023;-83
2023/01/19 14:44:32;;;;;;;8.90;7.20;;;;;;;3.59;72.00;99305.45;180561;1265;57946;-83
2023/01/19 14:48:35;;;;;;;9.50;6.00;;;;;;;3.64;71.38;99308.98;180609;1264;43828;-83
2023/01/19 14:52:42;;;;;;;13.20;7.00;;;;;;;3.63;71.20;99316.64;180599;1264;43867;-83
2023/01/19 14:56:46;;;;;;;;;;;;;;;3.58;71.10;99321.88;180329;1265;44123;-83
2023/01/19 15:00:54;;;;;;;26.30;16.40;;;;;;;3.49;71.43;99326.84;180555;1264;43785;-83
2023/01/19 15:05:00;;;;;;;45.60;27.70;;;;;;;3.12;73.73;99332.80;180591;1265;58134;-82
2023/01/19 15:09:03;;;;;;;50.60;29.50;;;;;;;2.62;76.22;99336.50;180580;1264;44085;-83
2023/01/19 15:13:17;;;;;;;36.80;27.40;;;;;;;2.26;78.16;99334.22;180526;1266;43883;-83
2023/01/19 15:17:24;;;;;;;34.70;25.00;;;;;;;2.09;78.75;99340.00;180471;1264;44156;-82
2023/01/19 15:21:27;;;;;;;33.90;23.60;;;;;;;1.89;79.52;99341.50;180433;1264;44241;-83
2023/01/19 15:25:30;;;;;;;41.50;32.60;;;;;;;1.68;80.67;99345.59;180587;1264;60034;-82
2023/01/19 15:29:33;;;;;;;45.30;28.20;;;;;;;1.66;80.68;99351.11;180611;1264;43875;-83
2023/01/19 15:33:36;;;;;;;63.80;32.80;;;;;;;1.67;81.45;99356.86;180593;1264;43883;-82
2023/01/19 15:37:39;;;;;;;83.90;45.90;;;;;;;1.63;81.90;99359.04;180517;1264;44109;-83
2023/01/19 15:41:45;;;;;;;106.30;61.30;;;;;;;1.47;83.82;99360.63;180499;1264;43832;-83
2023/01/19 15:45:59;;;;;;;88.90;52.60;;;;;;;1.38;83.54;99365.73;180621;1264;59261;-82
2023/01/19 15:50:02;;;;;;;114.70;63.20;;;;;;;1.25;83.92;99366.45;180491;1264;43860;-82
2023/01/19 15:54:11;;;;;;;483.20;262.90;;;;;;;1.19;84.07;99366.11;180548;1264;44127;-83
2023/01/19 15:58:14;;;;;;;422.10;223.70;;;;;;;1.10;84.17;99367.27;180465;1265;44182;-82
2023/01/19 16:02:17;;;;;;;271.30;143.50;;;;;;;1.08;83.56;99369.14;180580;1265;43893;-82
2023/01/19 16:06:20;;;;;;;144.20;75.00;;;;;;;1.11;83.43;99367.04;180340;1268;58455;-83
2023/01/19 16:10:24;;;;;;;115.20;68.50;;;;;;;1.06;84.17;99374.19;180420;1264;43869;-82
2023/01/19 16:14:27;;;;;;;112.60;62.30;;;;;;;1.01;85.47;99381.44;180417;1264;44186;-83
2023/01/19 16:18:30;;;;;;;88.20;56.40;;;;;;;0.96;86.14;99384.67;180263;1264;44079;-83
2023/01/19 16:22:33;;;;;;;112.10;59.30;;;;;;;0.94;85.74;99386.33;180325;1264;43882;-83
2023/01/19 16:26:36;;;;;;;109.50;62.30;;;;;;;0.84;85.85;99385.52;180447;1264;58304;-82
2023/01/19 16:30:39;;;;;;;122.60;67.50;;;;;;;0.70;86.85;99388.55;180502;1264;43791;-82
2023/01/19 16:34:43;;;;;;;123.30;71.50;;;;;;;0.57;87.81;99390.85;180510;1264;43888;-82
2023/01/19 16:38:46;;;;;;;135.20;86.30;;;;;;;0.52;87.48;99401.06;180575;1264;43930;-82
2023/01/19 16:42:49;;;;;;;156.60;84.10;;;;;;;0.51;86.82;99403.20;180504;1264;43737;-82
2023/01/19 16:46:53;;;;;;;160.60;90.80;;;;;;;0.47;86.53;99408.98;180338;1264;58137;-83
2023/01/19 16:50:59;;;;;;;154.70;93.40;;;;;;;0.46;87.00;99414.63;180414;1264;43845;-82
2023/01/19 16:55:07;;;;;;;132.60;81.90;;;;;;;0.39;87.39;99426.67;180597;1264;43973;-82
2023/01/19 16:59:13;;;;;;;85.40;57.60;;;;;;;0.26;87.96;99432.77;180352;1264;44037;-82
2023/01/19 17:03:16;;;;;;;100.90;55.30;;;;;;;0.19;88.22;99434.73;180532;1264;43958;-82
2023/01/19 17:07:19;;;;;;;73.90;38.40;;;;;;;0.11;88.61;99432.13;180486;1264;58074;-82
2023/01/19 17:11:25;;;;;;;88.20;50.30;;;;;;;0.14;88.15;99429.55;180521;1264;43785;-82
2023/01/19 17:15:30;;;;;;;138.50;83.40;;;;;;;0.28;87.30;99431.08;180381;1264;43798;-82
2023/01/19 17:19:33;;;;;;;107.80;60.10;;;;;;;0.47;86.71;99429.04;180463;1264;43955;-82
2023/01/19 17:23:40;;;;;;;116.60;65.30;;;;;;;0.60;87.37;99426.10;180339;1264;43867;-82
2023/01/19 17:27:43;;;;;;;110.70;63.60;;;;;;;0.64;86.30;99423.59;180399;1264;60383;-82
2023/01/19 17:31:49;;;;;;;114.30;70.80;;;;;;;0.63;84.93;99417.73;180603;1264;43879;-82
2023/01/19 17:35:52;;;;;;;114.20;70.80;;;;;;;0.68;85.03;99419.89;180522;1264;43887;-82
2023/01/19 17:39:55;;;;;;;101.60;56.90;;;;;;;0.76;85.91;99419.61;180201;1264;44010;-82
2023/01/19 17:43:59;;;;;;;85.30;45.40;;;;;;;0.76;86.75;99420.87;180373;1264;43962;-82
2023/01/19 17:48:03;;;;;;;80.30;52.70;;;;;;;0.75;86.94;99423.55;180496;1264;59601;-82
2023/01/19 17:52:06;;;;;;;91.30;56.10;;;;;;;0.78;86.42;99429.48;180468;1264;43793;-82
2023/01/19 17:56:13;;;;;;;82.40;50.00;;;;;;;0.83;86.30;99426.59;180467;1264;43814;-83
2023/01/19 18:00:17;;;;;;;67.40;36.80;;;;;;;0.90;85.61;99429.73;180312;1264;43794;-82
2023/01/19 18:04:19;;;;;;;50.30;28.40;;;;;;;0.91;85.22;99434.17;180509;1264;43876;-82
2023/01/19 18:08:23;;;;;;;42.80;27.80;;;;;;;0.94;85.06;99443.59;180505;1264;57919;-82
2023/01/19 18:12:26;;;;;;;51.10;32.20;;;;;;;0.94;84.76;99450.60;180468;1264;43795;-82
2023/01/19 18:16:29;;;;;;;59.90;36.90;;;;;;;0.93;85.59;99452.92;180437;1264;43926;-83
2023/01/19 18:20:32;;;;;;;62.80;37.80;;;;;;;0.92;85.98;99457.68;180503;1265;48070;-82
2023/01/19 18:24:38;;;;;;;64.00;39.10;;;;;;;0.89;85.71;99448.09;180584;1264;43875;-82
2023/01/19 18:28:43;;;;;;;51.20;31.40;;;;;;;0.89;85.64;99441.99;180214;1264;57931;-82
2023/01/19 18:32:46;;;;;;;51.70;28.90;;;;;;;0.69;85.57;99438.67;180404;1264;43741;-82
2023/01/19 18:36:48;;;;;;;41.40;26.50;;;;;;;0.57;85.83;99446.46;180609;1264;43852;-82
2023/01/19 18:41:12;;;;;;;56.60;27.30;;;;;;;0.59;86.47;99452.83;180328;1264;44211;-82
2023/01/19 18:45:16;;;;;;;45.10;26.70;;;;;;;0.65;86.57;99455.80;180567;1264;43786;-83
2023/01/19 18:49:19;;;;;;;43.00;25.80;;;;;;;0.70;86.86;99460.61;180484;1264;59557;-83
2023/01/19 18:53:22;;;;;;;42.60;26.80;;;;;;;0.74;86.71;99459.20;180449;1264;43846;-83
2023/01/19 18:57:25;;;;;;;64.70;41.40;;;;;;;0.50;87.02;99465.15;180327;1264;43879;-85
2023/01/19 19:01:37;;;;;;;56.90;31.00;;;;;;;0.12;89.50;99470.61;180261;1264;45027;-83
2023/01/19 19:05:41;;;;;;;68.70;34.20;;;;;;;-0.13;91.22;99480.25;180268;1264;44066;-84
2023/01/19 19:09:44;;;;;;;58.60;36.60;;;;;;;-0.33;92.74;99484.91;180347;1264;58398;-83
2023/01/19 19:13:52;;;;;;;87.90;45.00;;;;;;;-0.42;92.75;99487.27;180431;1264;43906;-81
2023/01/19 19:17:55;;;;;;;74.90;45.10;;;;;;;-0.38;91.90;99489.66;180380;1264;44182;-83